Estación Meteorológica Peña el Pijo (Robertgarden) [ 05/25/19 23:20:05 CEST ]

Fecha Hora Presion(HPa) Temp (°C) Humedad % Rocio (°C) Viento ( m/s) Direccion Lluvia 1Hora(mm) Lluvia 24H(mm) LLuvia Total(mm)
2019-Mar-02 01:01:47 1013.400 7.9 59 0.4         183.37
2019-Mar-02 02:01:43 1013.300 7.3 60 0.1         183.37
2019-Mar-02 03:01:40 1013.300 6.7 61 -0.3         183.37
2019-Mar-02 04:01:43 1012.900 5.6 66 -0.3         183.37
2019-Mar-02 05:01:41 1013.100 4.9 69 -0.3         183.37
2019-Mar-02 06:01:40 1013.500 4.1 71 -0.7         183.37
2019-Mar-02 07:02:04 1013.800 3.9 73 -0.5         183.37
2019-Mar-02 08:01:53 1013.900 4.0 74 -0.2         183.37
2019-Mar-02 09:01:55 1014.300 7.1 73 2.6         183.37
2019-Mar-02 10:01:42 1014.600 13.8 56 5.2         183.37
2019-Mar-02 11:01:49 1014.500 17.9 37 2.9 0.4 N     183.37
2019-Mar-02 12:02:04 1014.500 18.1 27 -1.4 1.2 NE     183.37
2019-Mar-02 13:01:49 1014.100 17.5 28 -1.3         183.37
2019-Mar-02 14:01:53 1013.400 19.4 28 0.3         183.37
2019-Mar-02 15:01:53 1013.000 19.7 25 -1.1 3.5 NE     183.37
2019-Mar-02 16:01:49 1012.900 19.8 26 -0.5         183.37
2019-Mar-02 17:01:45 1012.800 19.7 27 0.0 2.4 NE     183.37
2019-Mar-02 18:01:45 1013.100 18.4 32 1.4         183.37
2019-Mar-02 19:01:38 1013.500 14.9 38 0.6         183.37
2019-Mar-02 20:01:49 1014.500 11.3 46 -0.1         183.37
2019-Mar-02 21:01:32 1014.900 8.4 53 -0.7         183.37
2019-Mar-02 22:01:38 1015.500 7.4 57 -0.6         183.37
2019-Mar-02 23:01:44 1015.800 6.3 59 -1.1         183.37

Temperatura Máxima:19°    Temperatura Mínima:
Presión Máxima:1015.800 Hpa    Presión Mínima:1012.800 Hpa


Volver